sensor_id;sensor_type;location;lat;lon;timestamp;P1;durP1;ratioP1;P2;durP2;ratioP2
21260;SDS011;10788;47.930;9.766;2023-06-14T00:01:34;0.00;;;0.00;;
21260;SDS011;10788;47.930;9.766;2023-06-14T00:04:00;0.00;;;0.00;;
21260;SDS011;10788;47.930;9.766;2023-06-14T00:06:28;0.00;;;0.00;;
21260;SDS011;10788;47.930;9.766;2023-06-14T00:08:54;0.00;;;0.00;;
21260;SDS011;10788;47.930;9.766;2023-06-14T00:11:19;0.00;;;0.00;;
21260;SDS011;10788;47.930;9.766;2023-06-14T00:13:45;0.00;;;0.00;;
21260;SDS011;10788;47.930;9.766;2023-06-14T00:16:12;0.00;;;0.00;;
21260;SDS011;10788;47.930;9.766;2023-06-14T00:18:37;0.00;;;0.00;;
21260;SDS011;10788;47.930;9.766;2023-06-14T00:21:03;0.00;;;0.00;;
21260;SDS011;10788;47.930;9.766;2023-06-14T00:23:29;0.00;;;0.00;;
21260;SDS011;10788;47.930;9.766;2023-06-14T00:25:55;0.00;;;0.00;;
21260;SDS011;10788;47.930;9.766;2023-06-14T00:28:20;0.00;;;0.00;;
21260;SDS011;10788;47.930;9.766;2023-06-14T00:30:46;0.00;;;0.00;;
21260;SDS011;10788;47.930;9.766;2023-06-14T00:33:12;0.00;;;0.00;;
21260;SDS011;10788;47.930;9.766;2023-06-14T00:35:38;0.00;;;0.00;;
21260;SDS011;10788;47.930;9.766;2023-06-14T00:38:04;0.00;;;0.00;;
21260;SDS011;10788;47.930;9.766;2023-06-14T00:40:30;0.00;;;0.00;;
21260;SDS011;10788;47.930;9.766;2023-06-14T00:42:55;0.00;;;0.00;;
21260;SDS011;10788;47.930;9.766;2023-06-14T00:45:21;0.00;;;0.00;;
21260;SDS011;10788;47.930;9.766;2023-06-14T00:47:46;0.00;;;0.00;;
21260;SDS011;10788;47.930;9.766;2023-06-14T00:50:16;0.00;;;0.00;;
21260;SDS011;10788;47.930;9.766;2023-06-14T00:52:41;0.00;;;0.00;;
21260;SDS011;10788;47.930;9.766;2023-06-14T00:55:07;0.00;;;0.00;;
21260;SDS011;10788;47.930;9.766;2023-06-14T00:57:33;0.00;;;0.00;;
21260;SDS011;10788;47.930;9.766;2023-06-14T01:00:02;0.00;;;0.00;;
21260;SDS011;10788;47.930;9.766;2023-06-14T01:02:33;0.00;;;0.00;;
21260;SDS011;10788;47.930;9.766;2023-06-14T01:04:59;0.00;;;0.00;;
21260;SDS011;10788;47.930;9.766;2023-06-14T01:15:45;0.00;;;0.00;;
21260;SDS011;10788;47.930;9.766;2023-06-14T01:18:11;0.00;;;0.00;;
21260;SDS011;10788;47.930;9.766;2023-06-14T01:20:42;0.00;;;0.00;;
21260;SDS011;10788;47.930;9.766;2023-06-14T01:23:09;0.00;;;0.00;;
21260;SDS011;10788;47.930;9.766;2023-06-14T01:25:37;0.00;;;0.00;;
21260;SDS011;10788;47.930;9.766;2023-06-14T01:28:04;0.00;;;0.00;;
21260;SDS011;10788;47.930;9.766;2023-06-14T01:30:37;0.00;;;0.00;;
21260;SDS011;10788;47.930;9.766;2023-06-14T01:33:11;0.00;;;0.00;;
21260;SDS011;10788;47.930;9.766;2023-06-14T01:35:38;0.00;;;0.00;;
21260;SDS011;10788;47.930;9.766;2023-06-14T01:38:04;0.00;;;0.00;;
21260;SDS011;10788;47.930;9.766;2023-06-14T01:40:32;0.00;;;0.00;;
21260;SDS011;10788;47.930;9.766;2023-06-14T01:42:59;0.00;;;0.00;;
21260;SDS011;10788;47.930;9.766;2023-06-14T01:45:27;0.00;;;0.00;;
21260;SDS011;10788;47.930;9.766;2023-06-14T01:47:53;0.00;;;0.00;;
21260;SDS011;10788;47.930;9.766;2023-06-14T01:50:20;0.00;;;0.00;;
21260;SDS011;10788;47.930;9.766;2023-06-14T01:52:45;0.00;;;0.00;;
21260;SDS011;10788;47.930;9.766;2023-06-14T01:55:11;0.00;;;0.00;;
21260;SDS011;10788;47.930;9.766;2023-06-14T01:57:37;0.00;;;0.00;;
21260;SDS011;10788;47.930;9.766;2023-06-14T02:00:06;0.00;;;0.00;;
21260;SDS011;10788;47.930;9.766;2023-06-14T02:02:37;0.07;;;0.00;;
21260;SDS011;10788;47.930;9.766;2023-06-14T02:05:03;0.00;;;0.00;;
21260;SDS011;10788;47.930;9.766;2023-06-14T02:07:29;0.00;;;0.00;;
21260;SDS011;10788;47.930;9.766;2023-06-14T02:09:55;0.00;;;0.00;;
21260;SDS011;10788;47.930;9.766;2023-06-14T02:12:20;0.00;;;0.00;;
21260;SDS011;10788;47.930;9.766;2023-06-14T02:14:46;0.00;;;0.00;;
21260;SDS011;10788;47.930;9.766;2023-06-14T02:17:12;0.00;;;0.00;;
21260;SDS011;10788;47.930;9.766;2023-06-14T02:19:37;0.00;;;0.00;;
21260;SDS011;10788;47.930;9.766;2023-06-14T02:22:03;0.00;;;0.00;;
21260;SDS011;10788;47.930;9.766;2023-06-14T02:24:29;0.00;;;0.00;;
21260;SDS011;10788;47.930;9.766;2023-06-14T02:26:55;0.00;;;0.00;;
21260;SDS011;10788;47.930;9.766;2023-06-14T02:29:20;0.00;;;0.00;;
21260;SDS011;10788;47.930;9.766;2023-06-14T02:31:46;0.00;;;0.00;;
21260;SDS011;10788;47.930;9.766;2023-06-14T02:34:13;0.00;;;0.00;;
21260;SDS011;10788;47.930;9.766;2023-06-14T02:36:41;0.00;;;0.00;;
21260;SDS011;10788;47.930;9.766;2023-06-14T02:39:07;0.00;;;0.00;;
21260;SDS011;10788;47.930;9.766;2023-06-14T02:41:36;0.00;;;0.00;;
21260;SDS011;10788;47.930;9.766;2023-06-14T02:44:02;0.00;;;0.00;;
21260;SDS011;10788;47.930;9.766;2023-06-14T02:46:28;0.00;;;0.00;;
21260;SDS011;10788;47.930;9.766;2023-06-14T02:48:54;0.00;;;0.00;;
21260;SDS011;10788;47.930;9.766;2023-06-14T02:51:19;0.00;;;0.00;;
21260;SDS011;10788;47.930;9.766;2023-06-14T02:53:45;0.00;;;0.00;;
21260;SDS011;10788;47.930;9.766;2023-06-14T02:56:11;0.00;;;0.00;;
21260;SDS011;10788;47.930;9.766;2023-06-14T02:58:37;0.00;;;0.00;;
21260;SDS011;10788;47.930;9.766;2023-06-14T03:01:04;0.00;;;0.00;;
21260;SDS011;10788;47.930;9.766;2023-06-14T03:03:30;0.00;;;0.00;;
21260;SDS011;10788;47.930;9.766;2023-06-14T03:05:56;0.00;;;0.00;;
21260;SDS011;10788;47.930;9.766;2023-06-14T03:08:22;0.00;;;0.00;;
21260;SDS011;10788;47.930;9.766;2023-06-14T03:10:52;0.00;;;0.00;;
21260;SDS011;10788;47.930;9.766;2023-06-14T03:13:18;0.00;;;0.00;;
21260;SDS011;10788;47.930;9.766;2023-06-14T03:15:47;0.00;;;0.00;;
21260;SDS011;10788;47.930;9.766;2023-06-14T03:18:14;0.00;;;0.00;;
21260;SDS011;10788;47.930;9.766;2023-06-14T03:20:40;0.00;;;0.00;;
21260;SDS011;10788;47.930;9.766;2023-06-14T03:23:07;0.00;;;0.00;;
21260;SDS011;10788;47.930;9.766;2023-06-14T03:25:33;0.00;;;0.00;;
21260;SDS011;10788;47.930;9.766;2023-06-14T03:28:00;0.00;;;0.00;;
21260;SDS011;10788;47.930;9.766;2023-06-14T03:30:27;0.00;;;0.00;;
21260;SDS011;10788;47.930;9.766;2023-06-14T03:32:53;0.00;;;0.00;;
21260;SDS011;10788;47.930;9.766;2023-06-14T03:35:20;0.00;;;0.00;;
21260;SDS011;10788;47.930;9.766;2023-06-14T03:37:46;0.00;;;0.00;;
21260;SDS011;10788;47.930;9.766;2023-06-14T03:40:13;0.00;;;0.00;;
21260;SDS011;10788;47.930;9.766;2023-06-14T03:42:40;0.00;;;0.00;;
21260;SDS011;10788;47.930;9.766;2023-06-14T03:45:06;0.00;;;0.00;;
21260;SDS011;10788;47.930;9.766;2023-06-14T03:47:31;0.00;;;0.00;;
21260;SDS011;10788;47.930;9.766;2023-06-14T03:49:57;0.00;;;0.00;;
21260;SDS011;10788;47.930;9.766;2023-06-14T03:52:23;0.00;;;0.00;;
21260;SDS011;10788;47.930;9.766;2023-06-14T03:54:49;0.00;;;0.00;;
21260;SDS011;10788;47.930;9.766;2023-06-14T03:57:16;0.00;;;0.00;;
21260;SDS011;10788;47.930;9.766;2023-06-14T03:59:42;0.00;;;0.00;;
21260;SDS011;10788;47.930;9.766;2023-06-14T04:02:08;0.00;;;0.00;;
21260;SDS011;10788;47.930;9.766;2023-06-14T04:04:34;0.00;;;0.00;;
21260;SDS011;10788;47.930;9.766;2023-06-14T04:07:00;0.00;;;0.00;;
21260;SDS011;10788;47.930;9.766;2023-06-14T04:09:28;0.00;;;0.00;;
21260;SDS011;10788;47.930;9.766;2023-06-14T04:11:55;0.00;;;0.00;;
21260;SDS011;10788;47.930;9.766;2023-06-14T04:14:21;0.00;;;0.00;;
21260;SDS011;10788;47.930;9.766;2023-06-14T04:16:46;0.00;;;0.00;;
21260;SDS011;10788;47.930;9.766;2023-06-14T04:19:13;0.00;;;0.00;;
21260;SDS011;10788;47.930;9.766;2023-06-14T04:21:39;0.00;;;0.00;;
21260;SDS011;10788;47.930;9.766;2023-06-14T04:24:05;0.00;;;0.00;;
21260;SDS011;10788;47.930;9.766;2023-06-14T04:26:31;0.00;;;0.00;;
21260;SDS011;10788;47.930;9.766;2023-06-14T04:28:58;0.00;;;0.00;;
21260;SDS011;10788;47.930;9.766;2023-06-14T04:31:28;0.00;;;0.00;;
21260;SDS011;10788;47.930;9.766;2023-06-14T04:33:54;0.00;;;0.00;;
21260;SDS011;10788;47.930;9.766;2023-06-14T04:36:20;0.00;;;0.00;;
21260;SDS011;10788;47.930;9.766;2023-06-14T04:38:47;0.00;;;0.00;;
21260;SDS011;10788;47.930;9.766;2023-06-14T04:41:14;0.00;;;0.00;;
21260;SDS011;10788;47.930;9.766;2023-06-14T04:43:41;0.00;;;0.00;;
21260;SDS011;10788;47.930;9.766;2023-06-14T04:46:08;0.00;;;0.00;;
21260;SDS011;10788;47.930;9.766;2023-06-14T04:48:39;0.00;;;0.00;;
21260;SDS011;10788;47.930;9.766;2023-06-14T04:51:06;0.00;;;0.00;;
21260;SDS011;10788;47.930;9.766;2023-06-14T04:53:33;0.00;;;0.00;;
21260;SDS011;10788;47.930;9.766;2023-06-14T04:55:59;0.00;;;0.00;;
21260;SDS011;10788;47.930;9.766;2023-06-14T04:58:25;0.00;;;0.00;;
21260;SDS011;10788;47.930;9.766;2023-06-14T05:00:52;0.00;;;0.00;;
21260;SDS011;10788;47.930;9.766;2023-06-14T05:03:18;0.00;;;0.00;;
21260;SDS011;10788;47.930;9.766;2023-06-14T05:05:46;0.00;;;0.00;;
21260;SDS011;10788;47.930;9.766;2023-06-14T05:08:11;0.00;;;0.00;;
21260;SDS011;10788;47.930;9.766;2023-06-14T05:10:37;0.00;;;0.00;;
21260;SDS011;10788;47.930;9.766;2023-06-14T05:13:03;0.00;;;0.00;;
21260;SDS011;10788;47.930;9.766;2023-06-14T05:15:29;0.00;;;0.00;;
21260;SDS011;10788;47.930;9.766;2023-06-14T05:17:55;0.00;;;0.00;;
21260;SDS011;10788;47.930;9.766;2023-06-14T05:20:24;0.00;;;0.00;;
21260;SDS011;10788;47.930;9.766;2023-06-14T05:22:52;0.00;;;0.00;;
21260;SDS011;10788;47.930;9.766;2023-06-14T05:25:18;0.00;;;0.00;;
21260;SDS011;10788;47.930;9.766;2023-06-14T05:27:45;0.00;;;0.00;;
21260;SDS011;10788;47.930;9.766;2023-06-14T05:30:11;0.00;;;0.00;;
21260;SDS011;10788;47.930;9.766;2023-06-14T05:32:38;0.00;;;0.00;;
21260;SDS011;10788;47.930;9.766;2023-06-14T05:35:03;0.00;;;0.00;;
21260;SDS011;10788;47.930;9.766;2023-06-14T05:37:30;0.00;;;0.00;;
21260;SDS011;10788;47.930;9.766;2023-06-14T05:39:56;0.00;;;0.00;;
21260;SDS011;10788;47.930;9.766;2023-06-14T05:42:22;0.00;;;0.00;;
21260;SDS011;10788;47.930;9.766;2023-06-14T05:44:48;0.00;;;0.00;;
21260;SDS011;10788;47.930;9.766;2023-06-14T05:47:13;0.00;;;0.00;;
21260;SDS011;10788;47.930;9.766;2023-06-14T05:49:39;0.00;;;0.00;;
21260;SDS011;10788;47.930;9.766;2023-06-14T05:52:05;0.00;;;0.00;;
21260;SDS011;10788;47.930;9.766;2023-06-14T05:54:31;0.00;;;0.00;;
21260;SDS011;10788;47.930;9.766;2023-06-14T05:56:56;0.00;;;0.00;;
21260;SDS011;10788;47.930;9.766;2023-06-14T05:59:26;0.00;;;0.00;;
21260;SDS011;10788;47.930;9.766;2023-06-14T06:01:52;0.00;;;0.00;;
21260;SDS011;10788;47.930;9.766;2023-06-14T06:04:18;0.00;;;0.00;;
21260;SDS011;10788;47.930;9.766;2023-06-14T06:06:44;0.00;;;0.00;;
21260;SDS011;10788;47.930;9.766;2023-06-14T06:09:11;0.00;;;0.00;;
21260;SDS011;10788;47.930;9.766;2023-06-14T06:11:39;0.00;;;0.00;;
21260;SDS011;10788;47.930;9.766;2023-06-14T06:14:05;0.00;;;0.00;;
21260;SDS011;10788;47.930;9.766;2023-06-14T06:16:30;0.00;;;0.00;;
21260;SDS011;10788;47.930;9.766;2023-06-14T06:18:56;0.00;;;0.00;;
21260;SDS011;10788;47.930;9.766;2023-06-14T06:21:21;0.00;;;0.00;;
21260;SDS011;10788;47.930;9.766;2023-06-14T06:23:47;0.00;;;0.00;;
21260;SDS011;10788;47.930;9.766;2023-06-14T06:26:12;0.00;;;0.00;;
21260;SDS011;10788;47.930;9.766;2023-06-14T06:28:38;0.00;;;0.00;;
21260;SDS011;10788;47.930;9.766;2023-06-14T06:31:04;0.00;;;0.00;;
21260;SDS011;10788;47.930;9.766;2023-06-14T06:33:30;0.00;;;0.00;;
21260;SDS011;10788;47.930;9.766;2023-06-14T06:35:56;0.00;;;0.00;;
21260;SDS011;10788;47.930;9.766;2023-06-14T06:38:21;0.00;;;0.00;;
21260;SDS011;10788;47.930;9.766;2023-06-14T06:40:47;0.00;;;0.00;;
21260;SDS011;10788;47.930;9.766;2023-06-14T06:43:13;0.00;;;0.00;;
21260;SDS011;10788;47.930;9.766;2023-06-14T06:45:39;0.00;;;0.00;;
21260;SDS011;10788;47.930;9.766;2023-06-14T06:48:05;0.00;;;0.00;;
21260;SDS011;10788;47.930;9.766;2023-06-14T06:50:31;0.00;;;0.00;;
21260;SDS011;10788;47.930;9.766;2023-06-14T06:52:56;0.00;;;0.00;;
21260;SDS011;10788;47.930;9.766;2023-06-14T06:55:22;0.00;;;0.00;;
21260;SDS011;10788;47.930;9.766;2023-06-14T06:57:48;0.00;;;0.00;;
21260;SDS011;10788;47.930;9.766;2023-06-14T07:00:15;0.00;;;0.00;;
21260;SDS011;10788;47.930;9.766;2023-06-14T07:02:41;0.00;;;0.00;;
21260;SDS011;10788;47.930;9.766;2023-06-14T07:05:07;0.00;;;0.00;;
21260;SDS011;10788;47.930;9.766;2023-06-14T07:07:33;0.00;;;0.00;;
21260;SDS011;10788;47.930;9.766;2023-06-14T07:09:59;0.00;;;0.00;;
21260;SDS011;10788;47.930;9.766;2023-06-14T07:12:25;0.00;;;0.00;;
21260;SDS011;10788;47.930;9.766;2023-06-14T07:14:51;0.00;;;0.00;;
21260;SDS011;10788;47.930;9.766;2023-06-14T07:17:16;0.00;;;0.00;;
21260;SDS011;10788;47.930;9.766;2023-06-14T07:19:42;0.00;;;0.00;;
21260;SDS011;10788;47.930;9.766;2023-06-14T07:22:08;0.00;;;0.00;;
21260;SDS011;10788;47.930;9.766;2023-06-14T07:24:33;0.00;;;0.00;;
21260;SDS011;10788;47.930;9.766;2023-06-14T07:27:01;0.00;;;0.00;;
21260;SDS011;10788;47.930;9.766;2023-06-14T07:29:28;0.07;;;0.07;;
21260;SDS011;10788;47.930;9.766;2023-06-14T07:31:53;0.00;;;0.00;;
21260;SDS011;10788;47.930;9.766;2023-06-14T07:34:19;0.00;;;0.00;;
21260;SDS011;10788;47.930;9.766;2023-06-14T07:36:45;0.00;;;0.00;;
21260;SDS011;10788;47.930;9.766;2023-06-14T07:39:11;0.00;;;0.00;;
21260;SDS011;10788;47.930;9.766;2023-06-14T07:41:37;0.10;;;0.10;;
21260;SDS011;10788;47.930;9.766;2023-06-14T07:44:02;0.03;;;0.03;;
21260;SDS011;10788;47.930;9.766;2023-06-14T07:46:28;0.00;;;0.00;;
21260;SDS011;10788;47.930;9.766;2023-06-14T07:48:54;0.10;;;0.10;;
21260;SDS011;10788;47.930;9.766;2023-06-14T07:51:19;0.07;;;0.07;;
21260;SDS011;10788;47.930;9.766;2023-06-14T07:53:47;0.00;;;0.00;;
21260;SDS011;10788;47.930;9.766;2023-06-14T07:56:13;0.10;;;0.10;;
21260;SDS011;10788;47.930;9.766;2023-06-14T07:58:39;0.10;;;0.10;;
21260;SDS011;10788;47.930;9.766;2023-06-14T08:01:05;0.10;;;0.10;;
21260;SDS011;10788;47.930;9.766;2023-06-14T08:03:32;0.10;;;0.10;;
21260;SDS011;10788;47.930;9.766;2023-06-14T08:05:58;0.10;;;0.10;;
21260;SDS011;10788;47.930;9.766;2023-06-14T08:08:25;0.00;;;0.00;;
21260;SDS011;10788;47.930;9.766;2023-06-14T08:10:51;0.10;;;0.10;;
21260;SDS011;10788;47.930;9.766;2023-06-14T08:13:17;0.10;;;0.10;;
21260;SDS011;10788;47.930;9.766;2023-06-14T08:15:42;0.10;;;0.10;;
21260;SDS011;10788;47.930;9.766;2023-06-14T08:18:09;0.10;;;0.10;;
21260;SDS011;10788;47.930;9.766;2023-06-14T08:20:34;0.10;;;0.10;;
21260;SDS011;10788;47.930;9.766;2023-06-14T08:23:01;0.10;;;0.10;;
21260;SDS011;10788;47.930;9.766;2023-06-14T08:25:29;0.10;;;0.10;;
21260;SDS011;10788;47.930;9.766;2023-06-14T08:27:55;0.00;;;0.00;;
21260;SDS011;10788;47.930;9.766;2023-06-14T08:30:21;0.10;;;0.10;;
21260;SDS011;10788;47.930;9.766;2023-06-14T08:32:47;0.10;;;0.10;;
21260;SDS011;10788;47.930;9.766;2023-06-14T08:35:12;0.10;;;0.10;;
21260;SDS011;10788;47.930;9.766;2023-06-14T08:37:39;0.10;;;0.10;;
21260;SDS011;10788;47.930;9.766;2023-06-14T08:40:12;0.10;;;0.10;;
21260;SDS011;10788;47.930;9.766;2023-06-14T08:42:50;0.10;;;0.10;;
21260;SDS011;10788;47.930;9.766;2023-06-14T08:45:18;0.10;;;0.10;;
21260;SDS011;10788;47.930;9.766;2023-06-14T08:47:47;0.10;;;0.10;;
21260;SDS011;10788;47.930;9.766;2023-06-14T08:50:22;0.10;;;0.10;;
21260;SDS011;10788;47.930;9.766;2023-06-14T08:52:55;0.10;;;0.10;;
21260;SDS011;10788;47.930;9.766;2023-06-14T08:55:25;0.20;;;0.20;;
21260;SDS011;10788;47.930;9.766;2023-06-14T08:57:55;0.10;;;0.10;;
21260;SDS011;10788;47.930;9.766;2023-06-14T09:00:25;0.20;;;0.20;;
21260;SDS011;10788;47.930;9.766;2023-06-14T09:02:52;0.10;;;0.10;;
21260;SDS011;10788;47.930;9.766;2023-06-14T09:05:24;0.03;;;0.03;;
21260;SDS011;10788;47.930;9.766;2023-06-14T09:07:51;0.10;;;0.10;;
21260;SDS011;10788;47.930;9.766;2023-06-14T09:10:17;0.10;;;0.10;;
21260;SDS011;10788;47.930;9.766;2023-06-14T09:12:43;0.10;;;0.10;;
21260;SDS011;10788;47.930;9.766;2023-06-14T09:15:09;0.10;;;0.10;;
21260;SDS011;10788;47.930;9.766;2023-06-14T09:17:35;0.10;;;0.10;;
21260;SDS011;10788;47.930;9.766;2023-06-14T09:20:04;0.10;;;0.10;;
21260;SDS011;10788;47.930;9.766;2023-06-14T09:22:32;0.10;;;0.10;;
21260;SDS011;10788;47.930;9.766;2023-06-14T09:24:59;0.10;;;0.10;;
21260;SDS011;10788;47.930;9.766;2023-06-14T09:27:28;0.10;;;0.10;;
21260;SDS011;10788;47.930;9.766;2023-06-14T09:29:54;0.10;;;0.10;;
21260;SDS011;10788;47.930;9.766;2023-06-14T09:32:23;0.10;;;0.10;;
21260;SDS011;10788;47.930;9.766;2023-06-14T09:34:49;0.10;;;0.10;;
21260;SDS011;10788;47.930;9.766;2023-06-14T09:37:31;0.10;;;0.10;;
21260;SDS011;10788;47.930;9.766;2023-06-14T09:39:57;0.10;;;0.10;;
21260;SDS011;10788;47.930;9.766;2023-06-14T09:42:23;0.10;;;0.10;;
21260;SDS011;10788;47.930;9.766;2023-06-14T09:44:53;0.10;;;0.10;;
21260;SDS011;10788;47.930;9.766;2023-06-14T09:47:20;0.10;;;0.10;;
21260;SDS011;10788;47.930;9.766;2023-06-14T09:49:46;0.13;;;0.13;;
21260;SDS011;10788;47.930;9.766;2023-06-14T09:52:16;0.20;;;0.20;;
21260;SDS011;10788;47.930;9.766;2023-06-14T09:54:44;0.10;;;0.10;;
21260;SDS011;10788;47.930;9.766;2023-06-14T09:57:12;0.10;;;0.10;;
21260;SDS011;10788;47.930;9.766;2023-06-14T09:59:43;0.10;;;0.10;;
21260;SDS011;10788;47.930;9.766;2023-06-14T10:02:11;0.10;;;0.10;;
21260;SDS011;10788;47.930;9.766;2023-06-14T10:04:47;0.17;;;0.17;;
21260;SDS011;10788;47.930;9.766;2023-06-14T10:07:19;0.13;;;0.13;;
21260;SDS011;10788;47.930;9.766;2023-06-14T10:09:46;0.10;;;0.10;;
21260;SDS011;10788;47.930;9.766;2023-06-14T10:12:17;0.10;;;0.10;;
21260;SDS011;10788;47.930;9.766;2023-06-14T10:14:48;0.10;;;0.10;;
21260;SDS011;10788;47.930;9.766;2023-06-14T10:17:35;0.10;;;0.10;;
21260;SDS011;10788;47.930;9.766;2023-06-14T10:23:22;0.10;;;0.10;;
21260;SDS011;10788;47.930;9.766;2023-06-14T10:25:50;0.10;;;0.10;;
21260;SDS011;10788;47.930;9.766;2023-06-14T10:28:22;0.10;;;0.10;;
21260;SDS011;10788;47.930;9.766;2023-06-14T10:31:02;0.10;;;0.10;;
21260;SDS011;10788;47.930;9.766;2023-06-14T10:33:36;0.10;;;0.10;;
21260;SDS011;10788;47.930;9.766;2023-06-14T10:41:57;0.20;;;0.20;;
21260;SDS011;10788;47.930;9.766;2023-06-14T10:44:30;0.10;;;0.10;;
21260;SDS011;10788;47.930;9.766;2023-06-14T10:47:04;0.10;;;0.10;;
21260;SDS011;10788;47.930;9.766;2023-06-14T10:49:36;0.30;;;0.30;;
21260;SDS011;10788;47.930;9.766;2023-06-14T10:52:11;0.10;;;0.10;;
21260;SDS011;10788;47.930;9.766;2023-06-14T10:55:03;0.10;;;0.10;;
21260;SDS011;10788;47.930;9.766;2023-06-14T10:57:30;0.10;;;0.10;;
21260;SDS011;10788;47.930;9.766;2023-06-14T11:00:00;0.10;;;0.10;;
21260;SDS011;10788;47.930;9.766;2023-06-14T11:02:46;0.10;;;0.10;;
21260;SDS011;10788;47.930;9.766;2023-06-14T11:05:15;0.10;;;0.10;;
21260;SDS011;10788;47.930;9.766;2023-06-14T11:13:04;0.20;;;0.20;;
21260;SDS011;10788;47.930;9.766;2023-06-14T11:15:32;0.20;;;0.20;;
21260;SDS011;10788;47.930;9.766;2023-06-14T11:18:03;0.20;;;0.20;;
21260;SDS011;10788;47.930;9.766;2023-06-14T11:20:30;0.10;;;0.10;;
21260;SDS011;10788;47.930;9.766;2023-06-14T11:22:58;0.20;;;0.20;;
21260;SDS011;10788;47.930;9.766;2023-06-14T11:25:24;0.20;;;0.20;;
21260;SDS011;10788;47.930;9.766;2023-06-14T11:27:50;0.10;;;0.10;;
21260;SDS011;10788;47.930;9.766;2023-06-14T11:30:16;0.20;;;0.20;;
21260;SDS011;10788;47.930;9.766;2023-06-14T11:32:42;0.10;;;0.10;;
21260;SDS011;10788;47.930;9.766;2023-06-14T11:35:10;0.10;;;0.10;;
21260;SDS011;10788;47.930;9.766;2023-06-14T11:37:36;0.20;;;0.20;;
21260;SDS011;10788;47.930;9.766;2023-06-14T11:40:03;0.10;;;0.10;;
21260;SDS011;10788;47.930;9.766;2023-06-14T11:42:36;0.20;;;0.20;;
21260;SDS011;10788;47.930;9.766;2023-06-14T11:45:03;0.20;;;0.20;;
21260;SDS011;10788;47.930;9.766;2023-06-14T11:47:33;0.10;;;0.10;;
21260;SDS011;10788;47.930;9.766;2023-06-14T11:50:03;0.20;;;0.20;;
21260;SDS011;10788;47.930;9.766;2023-06-14T11:52:31;0.20;;;0.20;;
21260;SDS011;10788;47.930;9.766;2023-06-14T11:54:57;0.10;;;0.10;;
21260;SDS011;10788;47.930;9.766;2023-06-14T11:57:24;0.20;;;0.20;;
21260;SDS011;10788;47.930;9.766;2023-06-14T11:59:50;0.20;;;0.20;;
21260;SDS011;10788;47.930;9.766;2023-06-14T12:02:16;0.23;;;0.23;;
21260;SDS011;10788;47.930;9.766;2023-06-14T12:04:42;0.30;;;0.30;;
21260;SDS011;10788;47.930;9.766;2023-06-14T12:07:15;0.30;;;0.30;;
21260;SDS011;10788;47.930;9.766;2023-06-14T12:12:23;0.20;;;0.20;;
21260;SDS011;10788;47.930;9.766;2023-06-14T12:14:52;0.30;;;0.30;;
21260;SDS011;10788;47.930;9.766;2023-06-14T12:17:20;0.20;;;0.20;;
21260;SDS011;10788;47.930;9.766;2023-06-14T12:19:45;0.20;;;0.20;;
21260;SDS011;10788;47.930;9.766;2023-06-14T12:22:15;0.20;;;0.20;;
21260;SDS011;10788;47.930;9.766;2023-06-14T12:24:45;0.20;;;0.20;;
21260;SDS011;10788;47.930;9.766;2023-06-14T12:27:11;0.10;;;0.10;;
21260;SDS011;10788;47.930;9.766;2023-06-14T12:29:40;0.20;;;0.20;;
21260;SDS011;10788;47.930;9.766;2023-06-14T12:32:09;0.27;;;0.27;;
21260;SDS011;10788;47.930;9.766;2023-06-14T12:34:35;0.20;;;0.20;;
21260;SDS011;10788;47.930;9.766;2023-06-14T12:37:01;0.20;;;0.20;;
21260;SDS011;10788;47.930;9.766;2023-06-14T12:39:29;0.30;;;0.30;;
21260;SDS011;10788;47.930;9.766;2023-06-14T12:41:56;0.20;;;0.20;;
21260;SDS011;10788;47.930;9.766;2023-06-14T12:44:22;0.20;;;0.20;;
21260;SDS011;10788;47.930;9.766;2023-06-14T12:46:48;0.30;;;0.30;;
21260;SDS011;10788;47.930;9.766;2023-06-14T12:49:16;0.20;;;0.20;;
21260;SDS011;10788;47.930;9.766;2023-06-14T12:51:42;0.30;;;0.30;;
21260;SDS011;10788;47.930;9.766;2023-06-14T12:54:07;0.20;;;0.20;;
21260;SDS011;10788;47.930;9.766;2023-06-14T12:56:33;0.20;;;0.20;;
21260;SDS011;10788;47.930;9.766;2023-06-14T12:58:59;0.20;;;0.20;;
21260;SDS011;10788;47.930;9.766;2023-06-14T13:01:25;0.20;;;0.20;;
21260;SDS011;10788;47.930;9.766;2023-06-14T13:03:51;0.20;;;0.20;;
21260;SDS011;10788;47.930;9.766;2023-06-14T13:06:20;0.20;;;0.20;;
21260;SDS011;10788;47.930;9.766;2023-06-14T13:08:47;0.20;;;0.20;;
21260;SDS011;10788;47.930;9.766;2023-06-14T13:11:13;0.20;;;0.20;;
21260;SDS011;10788;47.930;9.766;2023-06-14T13:13:38;0.20;;;0.20;;
21260;SDS011;10788;47.930;9.766;2023-06-14T13:16:04;0.20;;;0.20;;
21260;SDS011;10788;47.930;9.766;2023-06-14T13:18:30;0.27;;;0.27;;
21260;SDS011;10788;47.930;9.766;2023-06-14T13:20:55;0.20;;;0.20;;
21260;SDS011;10788;47.930;9.766;2023-06-14T13:23:21;0.20;;;0.20;;
21260;SDS011;10788;47.930;9.766;2023-06-14T13:25:46;0.20;;;0.20;;
21260;SDS011;10788;47.930;9.766;2023-06-14T13:28:14;0.17;;;0.17;;
21260;SDS011;10788;47.930;9.766;2023-06-14T13:30:40;0.20;;;0.20;;
21260;SDS011;10788;47.930;9.766;2023-06-14T13:33:05;0.20;;;0.20;;
21260;SDS011;10788;47.930;9.766;2023-06-14T13:35:31;0.27;;;0.27;;
21260;SDS011;10788;47.930;9.766;2023-06-14T13:37:57;0.27;;;0.27;;
21260;SDS011;10788;47.930;9.766;2023-06-14T13:40:22;0.30;;;0.30;;
21260;SDS011;10788;47.930;9.766;2023-06-14T13:42:48;0.27;;;0.27;;
21260;SDS011;10788;47.930;9.766;2023-06-14T13:45:14;0.20;;;0.20;;
21260;SDS011;10788;47.930;9.766;2023-06-14T13:47:41;0.10;;;0.10;;
21260;SDS011;10788;47.930;9.766;2023-06-14T13:50:06;0.20;;;0.20;;
21260;SDS011;10788;47.930;9.766;2023-06-14T13:52:33;0.20;;;0.20;;
21260;SDS011;10788;47.930;9.766;2023-06-14T13:54:59;0.20;;;0.20;;
21260;SDS011;10788;47.930;9.766;2023-06-14T13:57:25;0.20;;;0.20;;
21260;SDS011;10788;47.930;9.766;2023-06-14T13:59:51;0.20;;;0.20;;
21260;SDS011;10788;47.930;9.766;2023-06-14T14:02:18;0.30;;;0.30;;
21260;SDS011;10788;47.930;9.766;2023-06-14T14:04:44;0.20;;;0.20;;
21260;SDS011;10788;47.930;9.766;2023-06-14T14:07:16;0.20;;;0.20;;
21260;SDS011;10788;47.930;9.766;2023-06-14T14:09:42;0.20;;;0.20;;
21260;SDS011;10788;47.930;9.766;2023-06-14T14:12:08;0.20;;;0.20;;
21260;SDS011;10788;47.930;9.766;2023-06-14T14:14:33;0.30;;;0.30;;
21260;SDS011;10788;47.930;9.766;2023-06-14T14:16:59;0.20;;;0.20;;
21260;SDS011;10788;47.930;9.766;2023-06-14T14:19:25;0.27;;;0.27;;
21260;SDS011;10788;47.930;9.766;2023-06-14T14:21:50;0.20;;;0.20;;
21260;SDS011;10788;47.930;9.766;2023-06-14T14:24:18;0.20;;;0.20;;
21260;SDS011;10788;47.930;9.766;2023-06-14T14:26:44;0.30;;;0.30;;
21260;SDS011;10788;47.930;9.766;2023-06-14T14:29:12;0.20;;;0.20;;
21260;SDS011;10788;47.930;9.766;2023-06-14T14:31:38;0.30;;;0.30;;
21260;SDS011;10788;47.930;9.766;2023-06-14T14:34:03;0.30;;;0.30;;
21260;SDS011;10788;47.930;9.766;2023-06-14T14:36:30;0.20;;;0.20;;
21260;SDS011;10788;47.930;9.766;2023-06-14T14:38:55;0.30;;;0.30;;
21260;SDS011;10788;47.930;9.766;2023-06-14T14:41:21;0.20;;;0.20;;
21260;SDS011;10788;47.930;9.766;2023-06-14T14:43:47;0.20;;;0.20;;
21260;SDS011;10788;47.930;9.766;2023-06-14T14:46:12;0.10;;;0.10;;
21260;SDS011;10788;47.930;9.766;2023-06-14T14:48:38;0.20;;;0.20;;
21260;SDS011;10788;47.930;9.766;2023-06-14T14:51:03;0.20;;;0.20;;
21260;SDS011;10788;47.930;9.766;2023-06-14T14:53:29;0.20;;;0.20;;
21260;SDS011;10788;47.930;9.766;2023-06-14T14:55:55;0.20;;;0.20;;
21260;SDS011;10788;47.930;9.766;2023-06-14T14:58:20;0.20;;;0.20;;
21260;SDS011;10788;47.930;9.766;2023-06-14T15:00:46;0.20;;;0.20;;
21260;SDS011;10788;47.930;9.766;2023-06-14T15:03:12;0.10;;;0.10;;
21260;SDS011;10788;47.930;9.766;2023-06-14T15:05:38;0.20;;;0.20;;
21260;SDS011;10788;47.930;9.766;2023-06-14T15:08:04;0.20;;;0.20;;
21260;SDS011;10788;47.930;9.766;2023-06-14T15:10:36;0.20;;;0.20;;
21260;SDS011;10788;47.930;9.766;2023-06-14T15:13:02;0.30;;;0.30;;